Time;durP1;ratioP1;P1;durP2;ratioP2;P2;SDS_P1;SDS_P2;PMS_P1;PMS_P2;Temp;Humidity;BMP_temperature;BMP_pressure;BME280_temperature;BME280_humidity;BME280_pressure;Samples;Min_cycle;Max_cycle;Signal;HPM_P1;HPM_P2
2021/07/27 02:04:06;;;;;;;22.85;13.60;;;19.50;97.00;;;19.00;92.23;100118.69;3868212;22;20466;-83
2021/07/27 02:06:33;;;;;;;25.00;14.10;;;19.50;97.10;;;18.99;92.70;100114.25;5067810;28;20038;-83
2021/07/27 02:09:05;;;;;;;20.15;12.43;;;19.50;97.30;;;19.01;92.48;100112.06;5068686;28;20532;-83
2021/07/27 02:11:39;;;;;;;23.23;14.73;;;19.50;97.10;;;19.00;92.58;100112.31;5068525;28;20040;-83
2021/07/27 02:14:07;;;;;;;21.20;14.38;;;19.50;97.30;;;19.02;92.46;100115.66;5068599;28;20052;-82
2021/07/27 02:16:36;;;;;;;22.77;14.18;;;19.50;97.30;;;18.97;92.77;100116.41;5067853;28;20390;-83
2021/07/27 02:19:05;;;;;;;21.65;13.43;;;19.40;97.40;;;19.01;92.59;100108.50;5068675;28;20745;-82
2021/07/27 02:21:33;;;;;;;22.33;12.85;;;19.40;97.40;;;18.98;92.62;100109.81;5068307;28;20055;-83
2021/07/27 02:24:01;;;;;;;22.73;13.35;;;19.40;97.30;;;18.98;92.62;100115.31;5068632;28;20132;-82
2021/07/27 02:26:30;;;;;;;21.42;13.15;;;19.50;97.30;;;18.98;92.38;100103.47;5067818;28;20102;-82
2021/07/27 02:28:57;;;;;;;23.58;14.02;;;19.40;97.20;;;19.00;92.26;100102.16;5068497;28;20509;-82
2021/07/27 02:31:30;;;;;;;23.15;13.50;;;19.40;97.20;;;18.99;92.03;100110.66;5068422;28;20045;-83
2021/07/27 02:33:58;;;;;;;24.42;14.02;;;19.40;97.20;;;18.98;91.93;100115.31;5068416;28;20048;-82
2021/07/27 02:36:26;;;;;;;22.88;14.00;;;19.40;97.20;;;18.97;91.79;100119.19;5067804;28;20041;-82
2021/07/27 02:38:54;;;;;;;24.48;13.88;;;19.40;97.20;;;18.94;91.79;100122.44;5050417;28;20129;-82
2021/07/27 02:41:35;;;;;;;22.98;14.35;;;19.30;97.20;;;18.93;91.96;100123.53;5068418;28;20072;-82
2021/07/27 02:44:03;;;;;;;21.90;14.27;;;19.30;97.20;;;18.93;91.70;100124.34;5068297;28;20703;-82
2021/07/27 02:46:31;;;;;;;22.63;14.13;;;19.30;97.30;;;18.93;91.83;100129.03;5067842;28;20052;-83
2021/07/27 02:49:02;;;;;;;24.23;13.52;;;19.30;97.30;;;18.93;91.63;100123.53;5066811;28;20129;-82
2021/07/27 02:51:31;;;;;;;20.38;12.98;;;19.20;97.20;;;18.92;91.63;100124.59;5068434;28;20072;-82
2021/07/27 02:53:59;;;;;;;19.70;12.63;;;19.20;97.30;;;18.92;91.51;100122.69;5068286;28;20075;-84
2021/07/27 02:56:27;;;;;;;20.80;13.45;;;19.20;97.30;;;18.87;91.50;100116.25;5049469;28;20080;-83
2021/07/27 02:58:55;;;;;;;21.00;13.30;;;19.20;97.30;;;18.87;91.88;100119.03;5068463;28;20045;-83
2021/07/27 03:01:22;;;;;;;23.48;13.85;;;19.20;97.40;;;18.85;91.57;100121.16;5068146;28;20580;-84
2021/07/27 03:03:50;;;;;;;22.23;12.90;;;19.10;97.40;;;18.83;91.63;100120.56;5068158;28;20126;-83
2021/07/27 03:06:18;;;;;;;23.33;13.35;;;19.10;97.70;;;18.81;91.93;100114.47;5069477;28;20048;-84
2021/07/27 03:09:14;;;;;;;22.13;13.45;;;19.10;97.90;;;18.85;91.86;100118.41;5053896;28;20048;-84
2021/07/27 03:11:41;;;;;;;22.27;13.15;;;19.10;97.90;;;18.87;92.26;100119.03;5071760;28;20049;-83
2021/07/27 03:14:09;;;;;;;25.83;13.90;;;19.20;97.80;;;18.86;92.07;100118.16;5071682;28;20049;-84
2021/07/27 03:16:36;;;;;;;22.63;13.77;;;19.20;97.90;;;18.84;92.20;100122.25;5070802;28;20148;-84
2021/07/27 03:19:03;;;;;;;21.25;12.63;;;19.20;98.00;;;18.82;92.66;100121.69;5071624;28;20079;-83
2021/07/27 03:21:30;;;;;;;23.25;13.82;;;19.20;98.00;;;18.83;92.41;100123.34;5071464;28;20504;-84
2021/07/27 03:23:59;;;;;;;21.88;12.93;;;19.20;98.00;;;18.81;92.64;100120.84;5071412;28;20071;-84
2021/07/27 03:26:29;;;;;;;22.67;13.75;;;19.20;97.90;;;18.82;92.81;100116.16;5070649;28;20135;-83
2021/07/27 03:28:57;;;;;;;23.92;13.90;;;19.20;97.90;;;18.82;92.94;100121.69;5071509;28;20048;-84
2021/07/27 03:31:24;;;;;;;25.33;14.43;;;19.20;98.00;;;18.84;93.00;100125.03;5053238;28;20477;-83
2021/07/27 03:33:51;;;;;;;23.60;14.10;;;19.30;98.10;;;18.85;92.80;100132.19;5071349;28;20044;-83
2021/07/27 03:36:18;;;;;;;23.23;14.63;;;19.30;98.10;;;18.84;92.96;100127.78;5070451;28;20040;-84
2021/07/27 03:38:46;;;;;;;23.35;15.10;;;19.30;98.10;;;18.84;92.91;100125.84;5071067;28;20071;-83
2021/07/27 03:41:15;;;;;;;28.58;17.20;;;19.30;98.00;;;18.82;93.00;100128.03;5071007;28;20500;-84
2021/07/27 03:43:42;;;;;;;25.60;16.08;;;19.30;98.00;;;18.81;92.97;100125.50;5070953;28;20501;-83
2021/07/27 03:46:09;;;;;;;31.25;16.10;;;19.20;98.00;;;18.81;93.09;100120.00;5070229;28;20052;-84
2021/07/27 03:48:36;;;;;;;25.90;16.17;;;19.20;98.00;;;18.82;92.83;100127.19;5070896;28;20093;-84
2021/07/27 03:51:04;;;;;;;24.90;16.35;;;19.20;98.00;;;18.85;92.82;100121.16;5053022;28;20056;-83
2021/07/27 03:53:31;;;;;;;27.13;16.27;;;19.20;97.80;;;18.86;92.50;100123.69;5071053;28;20438;-83
2021/07/27 03:55:58;;;;;;;25.98;15.88;;;19.20;97.90;;;18.87;92.24;100122.59;5070323;28;20041;-83
2021/07/27 03:58:27;;;;;;;29.60;16.05;;;19.30;97.90;;;18.87;92.18;100132.81;5071001;28;20045;-83
2021/07/27 04:00:54;;;;;;;25.42;16.00;;;19.30;97.80;;;18.87;92.38;100119.84;5070835;28;20052;-83
2021/07/27 04:03:21;;;;;;;25.42;15.18;;;19.30;97.80;;;18.88;92.44;100128.94;5070685;28;20047;-84
2021/07/27 04:05:48;;;;;;;23.83;15.52;;;19.30;97.90;;;18.86;92.89;100129.19;5070647;28;20052;-83
2021/07/27 04:08:16;;;;;;;25.88;15.25;;;19.30;97.90;;;18.87;92.93;100130.06;5070388;28;20033;-83
2021/07/27 04:10:46;;;;;;;25.45;15.93;;;19.40;97.90;;;18.87;92.95;100130.88;5052547;28;20044;-83
2021/07/27 04:13:13;;;;;;;24.95;15.23;;;19.40;97.60;;;18.89;93.06;100130.63;5070568;28;20904;-83
2021/07/27 04:15:43;;;;;;;30.70;17.23;;;19.40;97.60;;;18.87;93.25;100135.56;5070048;28;20124;-83
2021/07/27 04:18:12;;;;;;;25.42;17.20;;;19.50;97.40;;;18.83;93.55;100140.75;5069344;28;20131;-83
2021/07/27 04:20:39;;;;;;;28.80;17.98;;;19.50;97.30;;;18.84;93.45;100141.56;5070259;28;20048;-83
2021/07/27 04:23:07;;;;;;;28.52;17.23;;;19.50;97.30;;;18.88;93.49;100142.72;5070043;28;20091;-83
2021/07/27 04:25:34;;;;;;;29.23;17.77;;;19.50;97.40;;;18.84;93.67;100136.03;5070250;28;20076;-83
2021/07/27 04:28:01;;;;;;;32.20;18.17;;;19.50;97.20;;;18.82;93.92;100140.97;5069583;28;20120;-83
2021/07/27 04:30:29;;;;;;;29.38;18.08;;;19.60;97.20;;;18.80;93.93;100140.38;5070058;28;20068;-83
2021/07/27 04:32:57;;;;;;;31.33;18.98;;;19.60;97.00;;;18.83;93.86;100139.88;5070023;28;20106;-84
2021/07/27 04:35:24;;;;;;;28.17;17.65;;;19.60;97.00;;;18.83;93.69;100135.22;5069939;28;20559;-84
2021/07/27 04:37:52;;;;;;;27.15;17.85;;;19.60;96.90;;;18.85;93.38;100143.22;5069195;28;20119;-84
2021/07/27 04:40:22;;;;;;;29.25;18.88;;;19.60;96.70;;;18.88;93.07;100146.31;5069830;28;20038;-83
2021/07/27 04:42:50;;;;;;;29.95;19.38;;;19.60;96.60;;;18.87;93.34;100141.91;5069694;28;20119;-83
2021/07/27 04:45:17;;;;;;;29.65;19.55;;;19.60;96.40;;;18.88;93.22;100137.22;5069834;28;20044;-83
2021/07/27 04:47:45;;;;;;;25.95;17.75;;;19.60;96.30;;;18.87;93.26;100138.31;5050048;28;20493;-83
2021/07/27 04:50:14;;;;;;;30.92;19.30;;;19.70;96.10;;;18.88;93.30;100138.03;5049370;28;20139;-83
2021/07/27 04:52:49;;;;;;;30.88;18.33;;;19.70;96.10;;;18.88;93.42;100134.47;5069588;28;20045;-83
2021/07/27 04:55:17;;;;;;;27.38;17.63;;;19.80;95.60;;;18.90;93.35;100137.81;5069479;28;20044;-84
2021/07/27 04:57:44;;;;;;;28.88;19.02;;;19.90;95.50;;;18.95;93.10;100143.41;5068924;28;20048;-83
2021/07/27 05:00:21;;;;;;;31.65;19.35;;;20.00;95.10;;;18.97;93.49;100138.50;5069619;28;20055;-83
2021/07/27 05:02:48;;;;;;;30.98;18.70;;;20.10;94.90;;;18.97;93.61;100137.66;5069405;28;20045;-83
2021/07/27 05:05:17;;;;;;;31.90;17.85;;;20.30;94.10;;;18.98;93.80;100137.38;5069560;28;20044;-83
2021/07/27 05:07:45;;;;;;;27.90;17.65;;;20.40;93.60;;;19.03;93.54;100140.25;5050575;28;20052;-84
2021/07/27 05:10:13;;;;;;;27.73;17.65;;;20.50;93.00;;;19.08;93.75;100145.03;5069443;28;20127;-84
2021/07/27 05:12:40;;;;;;;30.98;17.77;;;20.70;92.50;;;19.12;93.67;100137.91;5069402;28;20074;-84
2021/07/27 05:15:08;;;;;;;29.10;18.60;;;20.80;91.80;;;19.12;93.87;100133.22;5069259;28;20131;-84
2021/07/27 05:17:36;;;;;;;30.80;17.90;;;20.90;91.60;;;19.17;93.66;100139.91;5068359;28;20094;-84
2021/07/27 05:20:05;;;;;;;28.23;17.33;;;20.90;91.40;;;19.20;93.82;100142.19;5069277;28;20088;-84
2021/07/27 05:22:34;;;;;;;27.55;18.02;;;21.00;91.00;;;19.22;93.40;100137.25;5068861;28;20118;-83
2021/07/27 05:25:02;;;;;;;25.88;16.38;;;21.10;90.50;;;19.25;93.40;100137.56;5069226;28;20118;-84
2021/07/27 05:27:32;;;;;;;25.23;16.60;;;21.10;90.40;;;19.30;93.39;100134.06;5068366;28;20041;-83
2021/07/27 05:30:00;;;;;;;25.50;16.17;;;21.20;90.40;;;19.32;92.58;100134.63;5068930;28;20169;-84
2021/07/27 05:32:27;;;;;;;26.02;16.83;;;21.10;90.10;;;19.33;92.51;100137.16;5050729;28;20507;-84
2021/07/27 05:34:54;;;;;;;27.42;16.65;;;21.00;90.40;;;19.36;92.44;100141.31;5069044;28;20052;-84
2021/07/27 05:37:22;;;;;;;27.33;17.38;;;20.90;90.80;;;19.39;92.30;100148.28;5068428;28;20066;-84
2021/07/27 05:39:50;;;;;;;27.70;16.05;;;20.90;91.00;;;19.38;92.49;100144.69;5068987;28;20058;-83
2021/07/27 05:42:18;;;;;;;31.85;17.15;;;20.90;91.30;;;19.36;92.19;100144.06;5051035;28;20550;-84
2021/07/27 05:44:48;;;;;;;25.08;15.70;;;20.80;91.30;;;19.34;92.21;100151.78;5069181;28;20500;-84
2021/07/27 05:47:15;;;;;;;22.70;15.77;;;20.70;91.50;;;19.32;92.25;100142.91;5068252;28;20072;-84
2021/07/27 05:49:43;;;;;;;24.73;15.73;;;20.70;91.90;;;19.27;92.85;100151.13;5069046;28;20117;-84
2021/07/27 05:52:12;;;;;;;25.98;17.40;;;20.80;91.80;;;19.29;92.28;100148.94;5068844;28;20565;-84
2021/07/27 05:54:39;;;;;;;24.63;16.35;;;20.90;91.30;;;19.37;92.51;100134.72;5050900;28;20410;-83
2021/07/27 05:57:12;;;;;;;21.48;14.95;;;21.10;90.50;;;19.44;92.92;100140.06;5068314;28;20570;-83
2021/07/27 05:59:40;;;;;;;25.98;15.45;;;21.50;89.40;;;19.52;93.06;100142.41;5068594;28;20098;-83
2021/07/27 06:02:07;;;;;;;24.17;14.60;;;21.80;88.00;;;19.60;92.81;100141.13;5068751;28;20125;-83
2021/07/27 06:04:35;;;;;;;23.35;14.68;;;22.10;86.60;;;19.66;92.70;100140.94;5068727;28;20501;-83
2021/07/27 06:07:03;;;;;;;21.33;13.75;;;22.30;85.80;;;19.74;92.65;100131.41;5068087;28;20500;-83
2021/07/27 06:09:30;;;;;;;23.02;13.52;;;22.30;85.90;;;19.80;92.21;100135.94;5069006;28;20074;-84
2021/07/27 06:11:57;;;;;;;21.08;13.65;;;22.60;84.90;;;19.88;92.61;100140.19;5068793;28;20072;-84
2021/07/27 06:14:26;;;;;;;20.80;12.70;;;22.90;84.40;;;19.95;92.25;100139.97;5068579;28;20080;-84
2021/07/27 06:16:53;;;;;;;23.00;13.57;;;23.20;81.80;;;19.96;91.61;100141.66;5068304;28;20145;-84
2021/07/27 06:19:20;;;;;;;24.45;14.60;;;22.90;82.90;;;19.96;90.75;100136.97;5068506;28;20489;-84
2021/07/27 06:21:47;;;;;;;23.17;13.43;;;22.70;83.30;;;19.97;90.93;100135.03;5068684;28;20106;-84
2021/07/27 06:24:16;;;;;;;21.95;14.15;;;22.60;84.10;;;19.99;90.68;100146.66;5068662;28;20245;-84
2021/07/27 06:26:44;;;;;;;22.00;13.93;;;22.70;84.00;;;20.02;90.05;100146.16;5068125;28;20048;-84
2021/07/27 06:29:11;;;;;;;20.70;12.40;;;22.50;84.20;;;20.03;90.70;100136.75;5068604;28;20064;-84
2021/07/27 06:31:40;;;;;;;22.40;13.15;;;22.30;85.50;;;20.03;90.30;100147.81;5068624;28;20428;-84
2021/07/27 06:34:07;;;;;;;22.15;13.48;;;22.10;86.20;;;20.06;90.53;100147.31;5050558;28;20514;-84
2021/07/27 06:36:34;;;;;;;20.08;13.13;;;22.10;87.00;;;20.04;90.30;100141.22;5067862;28;20044;-84
2021/07/27 06:39:01;;;;;;;21.20;13.63;;;22.10;86.40;;;20.06;91.39;100136.25;5068671;28;20711;-83
2021/07/27 06:41:29;;;;;;;22.60;13.30;;;22.00;87.50;;;20.05;90.84;100146.47;5072108;28;20041;-83
2021/07/27 06:43:57;;;;;;;20.08;12.73;;;21.90;87.60;;;20.04;91.11;100150.31;5072311;28;20044;-83
2021/07/27 06:46:25;;;;;;;24.05;12.77;;;21.80;88.00;;;20.06;91.53;100150.06;5071436;28;20040;-84
2021/07/27 06:49:00;;;;;;;23.13;12.95;;;21.80;88.50;;;20.05;91.73;100148.41;5054234;28;20413;-85
2021/07/27 06:51:27;;;;;;;20.02;13.23;;;21.80;88.70;;;20.07;91.24;100146.22;5072083;28;20049;-84
2021/07/27 06:53:55;;;;;;;22.48;12.98;;;21.80;88.70;;;20.05;90.59;100151.19;5052982;28;20044;-83
2021/07/27 06:56:22;;;;;;;20.35;13.13;;;21.80;88.00;;;20.04;90.62;100143.97;5068807;28;20075;-84
2021/07/27 06:58:50;;;;;;;26.63;14.90;;;21.80;88.00;;;20.05;90.49;100140.97;5071896;28;20904;-83
2021/07/27 07:01:17;;;;;;;21.52;14.43;;;22.00;87.50;;;20.09;90.18;100146.81;5071835;28;20052;-83
2021/07/27 07:03:44;;;;;;;21.05;13.77;;;22.10;86.50;;;20.09;89.92;100138.53;5071683;28;20146;-84
2021/07/27 07:06:13;;;;;;;23.63;13.55;;;22.30;86.10;;;20.15;89.98;100140.25;5071161;28;20059;-84
2021/07/27 07:08:41;;;;;;;22.67;12.77;;;22.50;85.20;;;20.20;90.20;100143.09;5053767;28;20052;-84
2021/07/27 07:11:10;;;;;;;26.27;13.80;;;22.60;85.00;;;20.18;88.34;100150.81;5071756;28;20049;-84
2021/07/27 07:13:40;;;;;;;24.63;14.13;;;22.60;84.60;;;20.15;88.11;100144.94;5071808;28;20093;-84
2021/07/27 07:16:13;;;;;;;20.90;13.15;;;22.60;83.20;;;20.15;87.72;100148.53;5070936;28;20079;-84
2021/07/27 07:18:40;;;;;;;22.52;12.93;;;22.60;83.90;;;20.19;87.53;100144.16;5071634;28;20047;-84
2021/07/27 07:21:08;;;;;;;17.45;11.63;;;22.60;83.20;;;20.24;87.57;100147.00;5071434;28;20047;-84
2021/07/27 07:23:37;;;;;;;20.63;12.90;;;22.80;82.80;;;20.29;86.23;100141.50;5071634;28;20155;-84
2021/07/27 07:26:06;;;;;;;20.90;12.68;;;22.90;81.70;;;20.37;87.24;100142.16;5070718;28;20447;-84
2021/07/27 07:28:34;;;;;;;21.02;13.23;;;23.10;81.90;;;20.44;87.13;100145.56;5071579;28;20119;-84
2021/07/27 07:31:02;;;;;;;19.33;11.48;;;23.30;81.20;;;20.49;86.18;100140.09;5071156;28;20489;-84
2021/07/27 07:33:29;;;;;;;18.40;12.02;;;23.40;80.20;;;20.53;86.74;100137.66;5071151;28;20118;-84
2021/07/27 07:35:56;;;;;;;19.08;10.40;;;23.40;80.70;;;20.53;85.07;100135.72;5070694;28;20454;-84
2021/07/27 07:38:24;;;;;;;19.52;11.10;;;23.30;80.40;;;20.57;85.78;100142.38;5071202;28;20087;-84
2021/07/27 07:40:52;;;;;;;17.25;10.80;;;23.40;80.30;;;20.60;86.40;100136.38;5071233;28;20055;-84
2021/07/27 07:43:20;;;;;;;19.75;11.48;;;23.30;80.80;;;20.63;85.65;100141.38;5071150;28;20045;-84
2021/07/27 07:45:47;;;;;;;23.08;11.57;;;23.30;80.70;;;20.66;85.24;100143.63;5070978;28;20519;-84
2021/07/27 07:48:14;;;;;;;15.73;10.00;;;23.40;79.80;;;20.73;85.68;100134.28;5070551;28;20046;-84
2021/07/27 07:50:42;;;;;;;16.17;10.80;;;23.60;79.90;;;20.74;84.33;100136.78;5070785;28;20063;-84
2021/07/27 07:53:09;;;;;;;15.25;9.68;;;23.60;79.20;;;20.75;84.02;100132.09;5070500;28;20082;-84
2021/07/27 07:55:39;;;;;;;15.00;9.80;;;23.60;78.70;;;20.79;84.45;100131.31;5070737;28;20147;-84
2021/07/27 07:58:09;;;;;;;15.70;9.50;;;23.60;78.90;;;20.79;84.34;100134.09;5070040;28;20075;-84
2021/07/27 08:00:36;;;;;;;16.55;9.93;;;23.60;78.90;;;20.81;84.75;100136.56;5070546;28;20129;-84
2021/07/27 08:59:39;;;;;;;13.93;8.18;;;24.10;78.40;;;21.44;84.42;100129.38;5029034;28;20053;-87
2021/07/27 09:02:06;;;;;;;13.57;8.52;;;24.30;79.00;;;21.45;84.89;100119.97;5029659;28;20556;-89
2021/07/27 09:04:34;;;;;;;14.85;8.30;;;24.30;78.40;;;21.42;81.65;100126.03;5014003;28;20046;-89
2021/07/27 09:07:02;;;;;;;16.27;9.32;;;24.30;77.60;;;21.41;82.83;100109.66;4991783;28;20466;-90
2021/07/27 09:09:30;;;;;;;14.70;7.72;;;24.20;77.40;;;21.42;83.16;100114.94;5010090;28;20041;-90
2021/07/27 09:11:59;;;;;;;17.67;9.85;;;24.20;77.80;;;21.44;82.26;100111.94;5008704;28;20056;-90
2021/07/27 09:14:28;;;;;;;16.05;9.20;;;24.20;77.40;;;21.43;81.15;100111.06;5010077;28;20046;-89
2021/07/27 09:16:59;;;;;;;16.40;8.90;;;24.20;76.40;;;21.44;80.99;100110.00;5007985;28;20062;-90
2021/07/27 09:19:26;;;;;;;15.30;8.75;;;24.30;76.20;;;21.51;84.24;100106.16;5010143;28;20131;-89
2021/07/27 09:22:05;;;;;;;15.73;9.50;;;24.30;77.50;;;21.54;82.70;100108.41;5009736;28;20046;-85
2021/07/27 09:24:32;;;;;;;10.38;7.22;;;24.50;76.60;;;21.59;82.71;100105.63;5010714;28;20050;-86
2021/07/27 09:27:02;;;;;;;11.73;7.75;;;24.60;75.90;;;21.62;80.61;100111.47;5008979;28;20107;-87
2021/07/27 09:29:31;;;;;;;13.13;9.13;;;24.60;75.00;;;21.72;83.68;100099.63;5009713;28;20461;-86
2021/07/27 09:32:01;;;;;;;11.60;8.00;;;24.70;76.90;;;21.75;82.37;100103.81;5009507;28;20137;-87
2021/07/27 09:34:30;;;;;;;13.30;8.77;;;24.70;76.40;;;21.80;82.85;100101.91;5009319;28;20065;-87
2021/07/27 09:37:03;;;;;;;14.45;9.43;;;24.70;77.00;;;21.92;82.58;100106.38;5008960;28;20053;-86
2021/07/27 09:39:30;;;;;;;16.25;9.20;;;24.80;76.00;;;21.99;81.79;100118.03;5009611;28;20050;-87
2021/07/27 09:42:02;;;;;;;14.40;9.15;;;24.90;75.90;;;22.03;80.99;100116.41;5009481;28;20112;-86
2021/07/27 09:44:31;;;;;;;13.43;8.60;;;24.80;75.20;;;21.99;80.24;100118.03;4991961;28;20061;-87
2021/07/27 09:47:03;;;;;;;17.73;8.88;;;24.90;74.80;;;21.94;80.25;100116.09;5008647;28;20053;-86
2021/07/27 09:49:30;;;;;;;12.40;8.90;;;24.80;74.70;;;21.92;81.33;100112.75;5008455;28;20046;-87
2021/07/27 09:51:58;;;;;;;15.65;7.97;;;24.70;76.00;;;21.97;83.67;100109.16;5009289;28;20042;-87
2021/07/27 09:54:27;;;;;;;16.45;8.77;;;24.70;77.10;;;22.07;82.08;100109.22;5009125;28;20096;-87
2021/07/27 09:56:56;;;;;;;13.70;8.68;;;24.90;76.10;;;22.19;79.05;100107.03;4990903;28;20074;-87
2021/07/27 09:59:25;;;;;;;13.07;8.82;;;25.00;74.60;;;22.22;80.47;100106.50;5009107;28;20107;-86
2021/07/27 10:01:57;;;;;;;13.07;8.80;;;25.00;74.90;;;22.18;80.19;100108.16;4991444;28;20131;-86
2021/07/27 10:04:31;;;;;;;14.13;8.52;;;25.00;75.30;;;22.30;80.64;100107.13;5009067;28;20046;-86
2021/07/27 10:06:59;;;;;;;16.25;9.48;;;25.10;75.10;;;22.38;77.23;100106.59;5007090;28;20140;-87
2021/07/27 10:09:31;;;;;;;12.48;8.02;;;25.20;72.90;;;22.31;74.58;100094.91;5009203;28;20096;-85
2021/07/27 10:12:06;;;;;;;14.75;8.98;;;25.10;70.90;;;22.27;75.48;100102.94;5009057;28;20065;-87
2021/07/27 10:14:42;;;;;;;13.70;7.72;;;25.10;71.80;;;22.22;78.08;100109.28;5009970;28;20116;-86
2021/07/27 10:17:09;;;;;;;12.77;8.55;;;25.00;73.40;;;22.24;75.34;100115.38;4994794;28;20057;-87
2021/07/27 10:19:46;;;;;;;13.07;8.07;;;25.00;72.00;;;22.25;77.52;100110.69;5012916;28;20057;-86
2021/07/27 10:22:15;;;;;;;12.52;7.85;;;25.00;73.30;;;22.22;77.08;100109.28;4995225;28;20060;-87
2021/07/27 10:24:44;;;;;;;11.38;8.10;;;25.00;73.30;;;22.18;78.75;100115.63;4995178;28;20801;-86
2021/07/27 10:27:16;;;;;;;11.63;7.78;;;25.00;73.90;;;22.15;79.97;100111.47;5012145;28;20046;-87
2021/07/27 10:29:44;;;;;;;13.65;8.60;;;25.00;74.70;;;22.13;78.21;100115.63;5013036;28;20042;-87
2021/07/27 10:32:16;;;;;;;11.82;8.57;;;25.00;73.70;;;22.16;79.25;100115.91;5012626;28;20088;-87
2021/07/27 10:34:46;;;;;;;15.90;9.00;;;25.00;74.10;;;22.16;78.04;100115.91;4994883;28;20411;-87
2021/07/27 10:37:15;;;;;;;14.88;9.30;;;25.00;73.70;;;22.13;78.46;100119.22;4994295;28;20093;-86
2021/07/27 10:39:51;;;;;;;15.15;9.43;;;25.00;73.60;;;22.17;79.49;100117.56;5012567;28;20626;-86
2021/07/27 10:42:18;;;;;;;13.65;9.23;;;25.00;74.10;;;22.19;79.45;100123.66;5012848;28;20069;-87
2021/07/27 10:44:47;;;;;;;14.88;9.38;;;25.10;74.00;;;22.20;78.26;100117.03;5012427;28;20125;-87
2021/07/27 10:47:23;;;;;;;11.05;8.02;;;25.10;73.40;;;22.21;77.82;100110.38;5011887;28;20069;-86
2021/07/27 10:50:02;;;;;;;16.65;8.98;;;25.10;72.80;;;22.22;79.92;100116.78;5012546;28;20104;-86
2021/07/27 10:52:29;;;;;;;14.65;9.50;;;25.10;73.80;;;22.25;76.90;100105.16;5012406;28;20077;-86
2021/07/27 10:54:59;;;;;;;13.02;8.88;;;25.10;72.40;;;22.27;76.19;100104.88;5013158;28;20065;-87
2021/07/27 10:57:35;;;;;;;15.45;9.98;;;25.20;71.60;;;22.31;79.10;100104.06;4974354;28;20109;-87
2021/07/27 11:00:04;;;;;;;15.57;8.98;;;25.30;73.00;;;22.30;82.05;100113.50;4992477;28;20109;-86
2021/07/27 11:02:31;;;;;;;18.27;9.48;;;25.20;74.30;;;22.28;84.16;100110.16;4992583;28;20125;-86
2021/07/27 11:04:59;;;;;;;13.25;9.48;;;25.20;76.50;;;22.25;84.44;100111.53;4992419;28;20565;-87
2021/07/27 11:07:32;;;;;;;14.02;9.60;;;25.20;76.60;;;22.22;85.87;100095.41;4991875;28;20044;-87
2021/07/27 11:10:00;;;;;;;14.45;9.35;;;25.10;77.10;;;22.19;84.90;100095.94;4992527;28;20113;-87
2021/07/27 11:12:30;;;;;;;17.45;10.18;;;25.10;77.10;;;22.16;84.78;100090.13;4992324;28;20458;-86
2021/07/27 11:15:12;;;;;;;15.02;9.65;;;25.10;77.10;;;22.16;85.13;100082.66;4991076;28;20070;-87
2021/07/27 11:17:45;;;;;;;16.30;9.48;;;25.00;77.40;;;22.14;86.90;100086.78;4990441;28;20042;-88
2021/07/27 11:20:17;;;;;;;14.75;9.55;;;25.00;78.00;;;22.12;84.93;100094.53;4992427;28;20052;-87
2021/07/27 11:22:48;;;;;;;26.00;10.65;;;24.80;78.10;;;22.08;85.45;100116.41;4992380;28;20050;-87
2021/07/27 11:25:19;;;;;;;22.88;12.57;;;24.60;79.10;;;22.01;87.14;100126.94;4992127;28;20054;-87
2021/07/27 11:27:47;;;;;;;16.38;11.57;;;24.30;81.40;;;21.95;88.03;100128.00;4990699;28;20046;-86
2021/07/27 11:30:15;;;;;;;19.13;12.50;;;24.00;82.90;;;21.88;87.97;100132.97;4991933;28;20066;-87
2021/07/27 11:32:45;;;;;;;19.60;14.05;;;23.80;83.70;;;21.83;87.70;100126.28;4992129;28;20570;-86
2021/07/27 11:35:15;;;;;;;20.90;13.27;;;23.60;84.20;;;21.70;84.51;100114.84;4992061;28;20132;-87
2021/07/27 11:37:44;;;;;;;20.00;12.95;;;23.40;83.30;;;21.62;85.06;100118.97;4973871;28;20077;-87
2021/07/27 11:40:24;;;;;;;18.65;13.40;;;23.30;82.90;;;21.61;85.81;100114.50;4974268;28;20137;-87
2021/07/27 11:43:05;;;;;;;17.42;12.48;;;23.20;84.30;;;21.58;85.32;100107.59;4991946;28;20699;-85
2021/07/27 11:45:33;;;;;;;20.50;12.77;;;23.10;84.20;;;21.58;85.34;100102.06;4991917;28;20557;-87
2021/07/27 11:48:00;;;;;;;17.58;11.70;;;23.20;83.80;;;21.59;85.83;100105.63;4973607;28;20112;-86
2021/07/27 11:50:31;;;;;;;17.48;11.45;;;23.40;83.70;;;21.62;87.66;100099.59;4991763;28;20046;-87
2021/07/27 11:52:59;;;;;;;16.73;12.20;;;23.70;83.80;;;21.64;87.15;100100.16;4992095;28;20038;-87
2021/07/27 11:55:32;;;;;;;17.40;11.68;;;23.90;81.50;;;21.69;87.35;100091.88;4991435;28;20050;-86
2021/07/27 11:58:00;;;;;;;20.08;12.05;;;24.20;81.30;;;21.74;87.51;100089.13;4990917;28;20109;-86
2021/07/27 12:00:30;;;;;;;17.70;12.82;;;24.30;81.50;;;21.77;88.47;100088.59;4991426;28;20069;-86
2021/07/27 12:02:58;;;;;;;18.85;11.60;;;24.50;81.30;;;21.80;87.74;100085.28;4991618;28;20108;-87
2021/07/27 12:05:25;;;;;;;20.25;12.15;;;24.60;80.80;;;21.85;88.12;100085.28;4991537;28;20038;-87
2021/07/27 12:07:54;;;;;;;18.67;12.25;;;24.70;80.20;;;21.87;86.88;100082.25;4990682;28;20089;-87
2021/07/27 12:10:21;;;;;;;18.58;12.70;;;24.70;79.40;;;21.93;87.91;100086.69;4991313;28;20507;-87
2021/07/27 12:12:48;;;;;;;15.65;11.65;;;24.80;79.10;;;21.99;91.34;100087.56;4973400;28;20046;-86
2021/07/27 12:15:17;;;;;;;16.27;12.18;;;24.90;81.00;;;22.06;91.01;100082.59;4991218;28;20069;-87
2021/07/27 12:17:45;;;;;;;16.38;11.48;;;25.00;80.80;;;22.07;89.35;100081.50;4990421;28;20055;-87
2021/07/27 12:20:14;;;;;;;17.20;11.23;;;25.00;79.70;;;22.09;88.08;100073.75;4991045;28;20062;-87
2021/07/27 12:22:42;;;;;;;16.02;10.25;;;25.00;79.40;;;22.19;91.37;100082.09;4991074;28;20038;-86
2021/07/27 12:25:12;;;;;;;12.63;8.52;;;25.10;80.60;;;22.24;90.07;100075.75;4973437;28;20057;-86
2021/07/27 12:27:40;;;;;;;13.23;8.30;;;25.10;81.40;;;22.27;90.76;100075.22;4990472;28;20061;-87
2021/07/27 12:30:08;;;;;;;12.50;8.27;;;25.10;81.30;;;22.31;91.11;100069.97;4991063;28;20042;-87
2021/07/27 12:32:36;;;;;;;11.98;8.75;;;25.30;81.90;;;22.32;91.14;100066.91;4973347;28;20039;-86
2021/07/27 12:35:04;;;;;;;14.70;9.57;;;25.30;81.00;;;22.41;89.55;100054.19;4990848;28;20093;-86
2021/07/27 12:37:34;;;;;;;14.73;9.40;;;25.40;80.50;;;22.49;90.74;100054.75;4990179;28;20144;-86
2021/07/27 12:40:01;;;;;;;13.73;9.40;;;25.40;80.50;;;22.50;87.13;100050.88;4990731;28;20117;-87
2021/07/27 12:42:30;;;;;;;21.83;9.18;;;25.40;79.00;;;22.50;83.70;100045.31;4973013;28;20073;-87
2021/07/27 12:44:58;;;;;;;14.90;8.13;;;25.30;76.90;;;22.48;82.84;100040.03;4990373;28;20577;-86
2021/07/27 12:47:27;;;;;;;16.85;9.40;;;25.20;77.00;;;22.49;83.85;100049.22;4990026;28;20046;-86
2021/07/27 12:49:54;;;;;;;13.80;8.43;;;25.20;77.60;;;22.49;86.98;100046.44;4973191;28;20730;-87
2021/07/27 12:52:21;;;;;;;14.43;9.55;;;25.10;79.60;;;22.53;82.98;100045.59;5023844;28;20046;-87
2021/07/27 12:54:49;;;;;;;18.02;8.32;;;25.20;77.40;;;22.51;83.76;100045.03;5029843;28;20045;-87
2021/07/27 12:57:16;;;;;;;11.98;7.45;;;25.10;77.00;;;22.45;82.42;100040.59;5029111;28;20629;-87
2021/07/27 12:59:46;;;;;;;20.05;8.85;;;25.10;77.30;;;22.44;85.08;100041.69;5029843;28;20119;-86
2021/07/27 13:02:13;;;;;;;10.38;7.50;;;25.10;78.30;;;22.44;80.26;100034.22;5029772;28;20049;-87
2021/07/27 13:04:40;;;;;;;11.43;7.53;;;25.10;74.50;;;22.44;81.57;100031.44;5011796;28;20041;-87
2021/07/27 13:07:07;;;;;;;14.18;7.25;;;25.10;76.30;;;22.45;80.18;100035.06;5011101;28;20045;-87
2021/07/27 13:09:36;;;;;;;12.32;8.55;;;25.20;76.30;;;22.48;82.11;100030.91;5011862;28;20781;-86